Yass Linton Hostel, New South Wales

2:42 PM EST on July 23, 2014 (GMT +1000)
Urban environment (INEWSOUT380) Elev 1709 ft | 34.85 °S, 148.91 °E | Change Station

Current weather conditions updated 10 seconds ago

Scattered Clouds
Scattered Clouds
53.6 °F
Feels Like 53.6 °F
N
3.1
Wind Variable Wind from SW
Gusts 6.0 mph

Today is forecast to be Cooler than yesterday.

Today
High -- | Low -- °F
--% Chance of Precip.
Yesterday
High -- | Low -- °F
Precip. -- in
7:05 AM 5:16 PM
Waning Crescent, 13% visible
Pressure 30.15 in
Visibility 6.2 miles
Clouds Few 3000 ft
Scattered Clouds 23000 ft
Dew Point 41 °F
Humidity 62%
Rainfall 0.01 in
Snow Depth Not available.
UV 2 out of 12
Pollen Not available.
Air Quality Not available.
Flu Activity Not available.
METAR YSCB 230430Z 32006KT 9999 FEW030 SCT230 13/05 Q1021

More Conditions Fewer Conditions

Pressure 30.15 in
Visibility 6.2 miles
Clouds Few 3000 ft
Scattered Clouds 23000 ft
Dew Point 41 °F
Humidity 62%
Rainfall 0.01 in
Snow Depth Not available.
UV 2 out of 12
Pollen Not available.
Air Quality Not available.
Flu Activity Not available.
METAR YSCB 230430Z 32006KT 9999 FEW030 SCT230 13/05 Q1021

More Conditions Fewer Conditions

10-Day Weather Forecast

Almanac

Astronomy

Jul. 23, 2014 Rise Set
Actual Time 7:05 AM EST 5:16 PM EST
Civil Twilight 6:38 AM EST 5:43 PM EST
Nautical Twilight 6:07 AM EST 6:14 PM EST
Astronomical Twilight 5:37 AM EST 6:44 PM EST
Moon 3:45 AM EST 2:16 PM EST
Length of Visible Light 11h 05m
Length of Day
10h 10m
Tomorrow will be 1m 19s longer.
Waning Crescent, 13% of the Moon is Illuminated
Today
Waning Crescent
Jul 26
New
Aug 3
First Quarter
Aug 10
Full
Aug 17
Last Quarter

Yesterday's Extremes

Country Highs Country Lows

Community

WunderPhotos

Upload Photos

1,736,508 photos uploaded!

Nearby

Snow Depth

Not available.

Earthquake Activity

City Distance Mag. Time & Date
No recent earthquake activity has been reported nearby.
Minimum magnitude displayed is 2.5.

Coastal Water Temperatures

Place Temperature
No Stations Reporting

Nearby Weather Stations

Station Location Temp. Dew Point Humidity Wind Precip. Elev Updated Type
Urban environment, Yass 53.6 °F 41 °F 62% SW  at  3.1 mph 0.00 in / hr 1709 ft 2:42 PM EST Rapid Fire
Merryville, Australia, Murrumbateman 51.4 °F 40 °F 64% East  at  0.0 mph 0.00 in / hr 1916 ft 2:42 PM EST Rapid Fire
Jerrawa, Jerrawa 51.6 °F 47 °F 85% SSE  at  2.0 mph 0.00 in / hr 1865 ft 2:42 PM EST Rapid Fire
Murrumbateman, Murrumbateman 51.1 °F 45 °F 80% ESE  at  0.0 mph 0.00 in / hr 1935 ft 2:41 PM EST Rapid Fire
Burrinjuck Dam, Burrinjuck 50.2 °F 34 °F 54% North  at  0.0 mph 0.00 in / hr 1293 ft 2:42 PM EST Rapid Fire

Show More Stations Show Fewer Stations